Latest Weather Observations for Hamilton Island

IDQ60801

Issued at 12:02 pm EST Wednesday 27 May 2015 (issued every 30 minutes, with the page automatically refreshed every 10 minutes)

About weather observations | Map of weather stations | Latest weather observations for QLD | Other Formats
Station Details ID: 033106 Name: HAMILTON ISLAND AIRPORT Lat: -20.37 Lon: 148.95 Height: 58.66 m
Data from the previous 72 hours. | See also: Recent months at Hamilton Island
Date/Time
EST
Temp
°C
App
Temp
°C
Dew
Point
Rel
Hum
%
Delta-T
°C
Wind Press
QNH
hPa
Press
MSL
hPa
Rain
since 9 am
mm
Dir
 
Spd
km/h
Gust
km/h
Spd
kts
Gust
kts
27/12:00pm 22.3 18.6 19.1 82 2.0 SSE 37 44 20 24 1020.6 1020.3 0.0
27/11:30am 22.0 17.0 18.8 82 2.0 SSE 43 48 23 26 1021.1 - 0.0
27/11:23am 22.1 17.5 18.9 82 2.0 SSE 41 46 22 25 1021.2 - 0.0
27/11:00am 22.3 19.3 19.1 82 2.0 SSE 33 41 18 22 1021.4 - 0.0
27/10:40am 22.0 19.1 18.8 82 2.0 SSE 32 43 17 23 1021.6 - 0.0
27/10:30am 21.9 19.3 18.7 82 2.0 SSE 30 39 16 21 1021.8 - 0.0
27/10:00am 21.9 19.0 18.9 83 1.9 SSE 32 39 17 21 1022.1 - 0.0
27/09:50am 21.6 18.1 18.8 84 1.8 SSE 35 41 19 22 1022.0 - 0.0
27/09:30am 21.5 18.3 18.5 83 1.9 SSE 33 43 18 23 1021.9 - 0.0
27/09:17am 21.6 18.2 19.0 85 1.6 SSE 35 43 19 23 1021.9 - 0.0
27/09:00am 21.1 17.9 18.7 86 1.5 SSE 33 41 18 22 1021.7 1021.4 6.0
27/08:30am 20.6 17.1 18.7 89 1.2 S 35 44 19 24 1021.7 - 6.0
27/08:09am 20.6 17.4 18.7 89 1.2 SSE 33 43 18 23 1021.5 - 6.0
27/08:00am 20.5 17.6 18.8 90 1.1 S 32 43 17 23 1021.3 - 6.0
27/07:30am 20.7 17.9 19.0 90 1.1 SSE 32 39 17 21 1021.0 - 6.0
27/07:00am 20.6 17.7 18.9 90 1.1 S 32 41 17 22 1020.9 - 6.0
27/06:30am 20.3 17.3 18.6 90 1.1 S 32 41 17 22 1020.6 - 6.0
27/06:00am 20.5 17.6 18.8 90 1.1 S 32 41 17 22 1020.4 1020.1 6.0
27/05:30am 20.5 17.6 18.8 90 1.1 S 32 41 17 22 1020.1 - 6.0
27/05:00am 22.0 19.0 17.8 77 2.6 SE 30 35 16 19 1019.6 - 6.0
27/04:30am 22.1 18.5 17.7 76 2.7 ESE 33 39 18 21 1019.5 - 5.8
27/04:00am 21.0 19.4 19.3 90 1.1 S 26 33 14 18 1019.7 - 5.8
27/03:30am 21.8 18.6 19.5 87 1.5 SE 35 41 19 22 1019.6 - 5.8
27/03:12am 21.4 18.5 19.3 88 1.3 SE 33 39 18 21 1019.6 - 5.8
27/03:01am 21.1 18.8 19.4 90 1.1 SE 30 35 16 19 1019.7 - 5.8
27/03:00am 21.2 19.1 19.7 91 1.0 SE 30 35 16 19 1019.7 1019.4 5.8
27/02:34am 21.5 18.1 19.8 90 1.1 SE 37 43 20 23 1019.8 - 5.8
27/02:30am 21.6 18.1 19.5 88 1.3 SSE 37 43 20 23 1019.7 - 5.8
27/02:00am 21.7 17.7 19.4 87 1.5 SE 39 44 21 24 1019.9 - 5.8
27/01:54am 21.7 18.1 19.4 87 1.5 SE 37 44 20 24 1019.9 - 5.6
27/01:46am 21.7 18.6 19.6 88 1.3 SE 35 43 19 23 1020.0 - 5.6
27/01:30am 21.7 18.2 19.6 88 1.3 SE 37 44 20 24 1020.2 - 5.6
27/01:00am 21.6 18.1 19.7 89 1.2 SE 37 43 20 23 1020.5 - 5.6
27/12:30am 21.3 17.4 19.6 90 1.1 SE 39 44 21 24 1020.5 - 5.6
27/12:02am 20.9 18.4 20.1 95 0.5 SE 33 39 18 21 1020.9 - 5.6
27/12:00am 20.9 18.4 20.1 95 0.5 SE 33 41 18 22 1020.9 1020.6 5.6
 
Date/Time
EST
Temp
°C
App
Temp
°C
Dew
Point
Rel
Hum
%
Delta-T
°C
Wind Press
QNH
hPa
Press
MSL
hPa
Rain
since 9 am
mm
Dir
 
Spd
km/h
Gust
km/h
Spd
kts
Gust
kts
26/11:44pm 20.7 17.0 19.9 95 0.5 SSE 39 50 21 27 1021.0 - 5.6
26/11:30pm 20.9 17.8 19.6 92 0.8 SSE 35 43 19 23 1021.4 - 3.4
26/11:00pm 20.8 16.5 19.6 93 0.8 SSE 41 48 22 26 1021.4 - 3.4
26/10:43pm 20.6 17.3 19.3 92 0.8 SSE 35 43 19 23 1021.5 - 1.0
26/10:30pm 20.9 18.2 19.6 92 0.8 SSE 33 39 18 21 1021.7 - 1.0
26/10:29pm 20.9 18.2 19.6 92 0.8 SSE 33 39 18 21 1021.7 - 1.0
26/10:26pm 21.0 17.9 19.6 92 0.9 SSE 35 43 19 23 1021.7 - 0.8
26/10:00pm 20.9 16.5 19.4 91 1.0 SSE 41 46 22 25 1021.7 - 0.6
26/09:30pm 21.0 17.5 19.5 91 1.0 SSE 37 46 20 25 1021.7 - 0.6
26/09:01pm 20.9 17.3 19.4 91 1.0 SSE 37 46 20 25 1022.1 - 0.6
26/09:00pm 20.8 17.2 19.3 91 0.9 SSE 37 46 20 25 1022.1 1021.8 0.6
26/08:30pm 20.8 17.2 19.3 91 1.0 SSE 37 46 20 25 1022.2 - 0.6
26/08:22pm 20.8 17.3 19.5 92 0.8 SSE 37 46 20 25 1022.2 - 0.6
26/08:04pm 20.9 17.8 19.6 92 0.8 SSE 35 44 19 24 1022.2 - 0.6
26/08:00pm 21.0 17.9 19.6 92 0.9 SSE 35 44 19 24 1022.1 - 0.6
26/07:59pm 21.0 17.9 19.6 92 0.9 SSE 35 44 19 24 1022.1 - 0.6
26/07:39pm 20.9 18.3 19.6 92 0.8 SSE 32 41 17 22 1021.9 - 0.6
26/07:30pm 21.1 18.5 19.4 90 1.1 SSE 32 39 17 21 1021.9 - 0.0
26/07:19pm 21.0 18.1 19.3 90 1.1 SSE 33 39 18 21 1021.8 - 0.0
26/07:00pm 21.4 18.8 19.9 91 1.0 SSE 33 41 18 22 1021.8 - 0.0
26/06:30pm 21.3 18.4 19.2 88 1.3 SSE 33 41 18 22 1021.5 - 0.0
26/06:00pm 21.6 18.7 19.3 87 1.5 SSE 33 39 18 21 1021.2 1020.9 0.0
26/05:32pm 21.8 19.0 19.4 86 1.5 SSE 33 39 18 21 1020.8 - 0.0
26/05:30pm 21.8 19.0 19.4 86 1.5 SSE 33 39 18 21 1020.8 - 0.0
26/05:19pm 21.7 19.1 19.4 87 1.5 SSE 32 37 17 20 1020.8 - 0.0
26/05:00pm 21.7 18.8 19.3 86 1.5 SSE 33 37 18 20 1020.7 - 0.0
26/04:30pm 22.1 19.8 19.3 84 1.8 SSE 30 33 16 18 1020.6 - 0.0
26/04:00pm 22.0 19.1 18.8 82 2.0 SSE 32 35 17 19 1020.5 - 0.0
26/03:50pm 22.3 19.6 19.3 83 1.9 SSE 32 37 17 20 1020.4 - 0.0
26/03:30pm 21.7 18.3 19.1 85 1.6 SSE 35 41 19 22 1020.4 - 0.0
26/03:00pm 21.7 17.7 18.5 82 2.0 SSE 37 43 20 23 1020.7 1020.4 0.0
26/02:30pm 21.8 18.5 18.4 81 2.1 SSE 33 39 18 21 1020.9 - 0.0
26/02:00pm 21.9 18.0 18.7 82 2.0 SSE 37 44 20 24 1021.2 - 0.0
26/01:58pm 21.8 17.8 18.6 82 2.0 SSE 37 44 20 24 1021.3 - 0.0
26/01:33pm 21.9 17.6 18.7 82 2.0 SSE 39 44 21 24 1021.4 - 0.0
26/01:30pm 21.7 17.3 18.5 82 2.0 SSE 39 46 21 25 1021.5 - 0.0
26/01:10pm 21.7 16.9 18.5 82 2.0 SSE 41 48 22 26 1021.7 - 0.0
26/01:00pm 21.4 16.2 18.4 83 1.9 SSE 43 50 23 27 1021.8 - 0.0
26/12:49pm 21.6 16.9 18.6 83 1.9 SSE 41 50 22 27 1022.0 - 0.0
26/12:30pm 21.7 17.4 18.7 83 1.9 SSE 39 46 21 25 1022.3 - 0.0
26/12:00pm 21.3 16.2 18.7 85 1.6 SSE 43 52 23 28 1022.9 1022.6 0.0
26/11:30am 21.2 16.0 18.4 84 1.8 SSE 43 50 23 27 1022.9 - 0.0
26/11:00am 21.4 16.2 18.8 85 1.6 SSE 44 52 24 28 1023.2 - 0.0
26/10:46am 21.5 16.3 18.9 85 1.6 SSE 44 50 24 27 1023.3 - 0.0
26/10:32am 21.7 16.1 18.7 83 1.9 SSE 46 52 25 28 1023.3 - 0.0
26/10:30am 21.7 16.1 18.7 83 1.9 SSE 46 52 25 28 1023.4 - 0.0
26/10:00am 21.3 15.7 18.7 85 1.6 SSE 46 54 25 29 1023.7 - 0.0
26/09:30am 20.9 15.0 19.0 89 1.2 SSE 48 54 26 29 1023.8 - 0.0
26/09:00am 20.7 16.0 19.4 92 0.8 SSE 43 52 23 28 1023.9 1023.6 1.2
26/08:58am 20.7 16.3 19.4 92 0.8 SSE 41 52 22 28 1023.9 - 1.2
26/08:30am 20.2 14.7 18.9 92 0.8 SSE 46 65 25 35 1023.7 - 1.2
26/08:29am 20.3 14.8 19.0 92 0.8 SSE 46 65 25 35 1023.8 - 1.2
26/08:12am 20.1 13.8 18.9 93 0.8 SSE 50 59 27 32 1023.5 - 0.8
26/08:00am 20.6 15.7 19.1 91 0.9 SSE 43 54 23 29 1023.5 - 0.4
26/07:57am 20.5 15.5 18.8 90 1.1 SSE 43 54 23 29 1023.5 - 0.4
26/07:30am 20.7 15.8 19.4 92 0.8 SSE 44 54 24 29 1023.4 - 0.4
26/07:00am 21.1 14.5 19.0 88 1.3 SSE 52 59 28 32 1022.9 - 0.2
26/06:30am 21.4 16.1 19.5 89 1.2 SSE 46 54 25 29 1022.9 - 0.2
26/06:00am 22.1 17.8 17.9 77 2.6 SE 37 46 20 25 1022.8 1022.5 0.2
26/05:52am 21.3 17.8 19.6 90 1.1 SSE 37 44 20 24 1022.7 - 0.2
26/05:35am 20.5 17.8 19.2 92 0.8 S 32 39 17 21 1022.9 - 0.2
26/05:30am 20.4 17.3 18.9 91 0.9 S 33 39 18 21 1022.7 - 0.2
26/05:10am 20.5 17.2 18.4 88 1.3 S 33 46 18 25 1022.5 - 0.2
26/05:00am 20.9 17.9 18.7 87 1.4 SSE 32 44 17 24 1022.6 - 0.2
26/04:30am 21.5 18.9 17.9 80 2.2 S 28 41 15 22 1022.4 - 0.2
26/04:13am 22.3 19.2 18.3 78 2.5 SE 32 39 17 21 1022.5 - 0.2
26/04:02am 22.5 18.5 18.5 78 2.5 E 37 43 20 23 1022.3 - 0.2
26/04:00am 22.2 18.9 18.0 77 2.6 SE 32 35 17 19 1022.5 - 0.2
26/03:30am 22.9 19.1 18.2 75 2.9 ESE 35 41 19 22 1022.3 - 0.2
26/03:00am 21.0 17.7 18.4 85 1.6 SE 33 46 18 25 1022.4 1022.1 0.2
26/02:52am 21.6 17.7 18.8 84 1.8 SSE 37 46 20 25 1022.4 - 0.2
26/02:30am 22.4 19.7 17.5 74 3.0 ESE 28 32 15 17 1022.6 - 0.2
26/02:00am 22.0 18.5 18.0 78 2.5 ESE 33 46 18 25 1022.9 - 0.2
26/01:30am 22.3 15.1 17.7 75 2.9 ESE 52 59 28 32 1022.7 - 0.2
26/01:00am 22.6 17.6 17.1 71 3.4 ESE 39 48 21 26 1022.8 - 0.2
26/12:30am 22.4 16.2 18.2 77 2.6 ESE 48 56 26 30 1023.0 - 0.2
26/12:00am 22.5 17.5 17.0 71 3.4 ESE 39 50 21 27 1023.3 1023.0 0.2
 
Date/Time
EST
Temp
°C
App
Temp
°C
Dew
Point
Rel
Hum
%
Delta-T
°C
Wind Press
QNH
hPa
Press
MSL
hPa
Rain
since 9 am
mm
Dir
 
Spd
km/h
Gust
km/h
Spd
kts
Gust
kts
25/11:30pm 22.6 18.0 17.9 75 2.9 ESE 39 46 21 25 1023.4 - 0.2
25/11:00pm 22.6 18.3 17.7 74 3.0 SE 37 48 20 26 1023.7 - 0.2
25/10:30pm 22.5 17.4 17.6 74 3.0 ESE 41 50 22 27 1023.9 - 0.2
25/10:00pm 22.6 17.8 17.5 73 3.2 ESE 39 48 21 26 1023.9 - 0.2
25/09:30pm 22.6 18.6 18.4 77 2.6 ESE 37 54 20 29 1023.9 - 0.2
25/09:22pm 22.5 19.4 18.9 80 2.3 SE 33 54 18 29 1023.7 - 0.2
25/09:00pm 22.5 19.4 18.3 77 2.6 SE 32 35 17 19 1023.8 1023.5 0.2
25/08:30pm 22.6 18.9 18.4 77 2.6 SE 35 43 19 23 1023.5 - 0.2
25/08:00pm 22.7 18.5 18.0 75 2.9 ESE 37 43 20 23 1023.2 - 0.2
25/07:30pm 22.4 17.4 18.0 76 2.7 SE 41 46 22 25 1023.2 - 0.2
25/07:00pm 22.3 18.7 18.5 79 2.4 SE 35 44 19 24 1023.0 - 0.2
25/06:30pm 22.7 19.2 17.8 74 3.1 SE 33 39 18 21 1022.9 - 0.2
25/06:00pm 23.0 19.1 17.9 73 3.2 ESE 35 43 19 23 1022.7 1022.4 0.2
25/05:30pm 22.7 18.9 17.2 71 3.4 ESE 33 39 18 21 1022.5 - 0.2
25/05:21pm 22.7 18.6 17.4 72 3.3 ESE 35 44 19 24 1022.3 - 0.2
25/05:00pm 21.7 18.1 19.4 87 1.5 SSE 37 43 20 23 1022.5 - 0.2
25/04:30pm 22.0 18.9 19.7 87 1.5 SSE 35 43 19 23 1022.4 - 0.2
25/04:00pm 21.9 17.4 19.1 84 1.8 SSE 41 46 22 25 1022.5 - 0.2
25/03:30pm 22.0 17.9 19.2 84 1.8 SSE 39 44 21 24 1022.4 - 0.2
25/03:00pm 22.0 17.5 19.0 83 1.9 SSE 41 50 22 27 1022.6 1022.3 0.2
25/02:39pm 22.1 17.5 18.9 82 2.0 SSE 41 46 22 25 1022.6 - 0.2
25/02:30pm 22.2 17.8 19.2 83 1.9 SSE 41 48 22 26 1022.6 - 0.2
25/02:20pm 22.0 17.2 19.2 84 1.8 SSE 43 48 23 26 1022.7 - 0.2
25/02:00pm 21.4 16.9 19.1 87 1.5 SSE 41 50 22 27 1022.8 - 0.2
25/01:30pm 21.7 17.4 18.7 83 1.9 SSE 39 46 21 25 1022.8 - 0.2
25/01:00pm 21.9 16.9 18.9 83 1.9 SSE 43 48 23 26 1023.0 - 0.2
25/12:30pm 22.5 17.5 18.9 80 2.3 SSE 43 52 23 28 1023.1 - 0.2
25/12:00pm 23.5 19.3 19.8 80 2.4 SE 41 50 22 27 1023.6 1023.3 0.2
25/11:30am 23.3 19.8 19.5 79 2.4 SE 37 54 20 29 1023.9 - 0.2
25/11:19am 23.0 19.1 18.7 77 2.7 SSE 37 56 20 30 1023.9 - 0.2
25/11:00am 22.9 19.0 18.7 77 2.7 SSE 37 44 20 24 1024.5 - 0.0
25/10:55am 23.2 19.0 18.1 73 3.2 SSE 37 44 20 24 1024.6 - 0.0
25/10:30am 25.1 20.0 17.6 63 4.7 ESE 41 46 22 25 1024.6 - 0.0
25/10:00am 24.8 20.3 18.3 67 4.1 SE 39 46 21 25 1025.1 - 0.0
25/09:30am 24.5 19.7 17.5 65 4.4 ESE 39 46 21 25 1025.0 - 0.0
25/09:00am 23.8 18.0 17.3 67 4.0 ESE 44 50 24 27 1024.8 1024.5 4.2
25/08:30am 23.6 17.5 16.6 65 4.3 ESE 44 57 24 31 1024.2 - 4.2
25/08:00am 22.8 17.2 17.5 72 3.3 ESE 43 52 23 28 1023.7 - 4.2
25/07:30am 22.3 16.2 17.7 75 2.9 ESE 46 57 25 31 1023.8 - 4.2
25/07:00am 22.7 16.7 16.9 70 3.6 ESE 44 52 24 28 1023.5 - 4.0
25/06:30am 22.6 15.9 17.1 71 3.4 ESE 48 57 26 31 1023.1 - 4.0
25/06:00am 22.6 16.2 16.9 70 3.5 ESE 46 57 25 31 1022.8 1022.5 4.0
25/05:30am 22.6 15.8 16.9 70 3.5 ESE 48 59 26 32 1022.5 - 4.0
25/05:00am 22.7 16.2 16.5 68 3.8 ESE 46 54 25 29 1022.4 - 4.0
25/04:30am 22.8 16.8 16.8 69 3.7 ESE 44 57 24 31 1022.2 - 4.0
25/04:00am 22.7 16.6 16.3 67 3.9 ESE 43 48 23 26 1022.3 - 4.0
25/03:30am 22.8 16.3 15.6 64 4.3 ESE 44 52 24 28 1022.3 - 4.0
25/03:00am 22.8 16.2 16.4 67 3.9 ESE 46 56 25 30 1022.6 1022.3 4.0
25/02:30am 22.8 16.7 16.6 68 3.8 ESE 44 52 24 28 1022.5 - 4.0
25/02:00am 22.9 15.5 16.2 66 4.1 ESE 50 61 27 33 1022.6 - 4.0
25/01:30am 22.8 15.8 16.4 67 3.9 ESE 48 61 26 33 1023.0 - 4.0
25/01:00am 22.8 16.8 17.9 74 3.1 ESE 46 61 25 33 1023.4 - 3.8
25/12:30am 22.9 17.0 16.7 68 3.8 ESE 43 50 23 27 1023.4 - 3.8
25/12:00am 23.1 18.0 17.6 71 3.4 ESE 41 52 22 28 1023.6 1023.3 3.8
 
Date/Time
EST
Temp
°C
App
Temp
°C
Dew
Point
Rel
Hum
%
Delta-T
°C
Wind Press
QNH
hPa
Press
MSL
hPa
Rain
since 9 am
mm
Dir
 
Spd
km/h
Gust
km/h
Spd
kts
Gust
kts
24/11:30pm 22.9 17.2 17.1 70 3.6 ESE 43 50 23 27 1023.5 - 3.8
24/11:00pm 22.9 17.3 17.4 71 3.4 ESE 43 54 23 29 1023.5 - 3.8
24/10:30pm 22.9 16.9 16.9 69 3.7 ESE 44 52 24 28 1023.4 - 3.8
24/10:00pm 22.9 16.6 17.1 70 3.6 ESE 46 57 25 31 1023.2 - 3.8
24/09:30pm 23.0 15.5 17.0 69 3.7 ESE 52 63 28 34 1023.3 - 3.8
24/09:00pm 22.2 17.1 19.0 82 2.0 ESE 44 50 24 27 1023.4 1023.1 3.8
24/08:30pm 22.5 17.2 18.5 78 2.5 ESE 44 56 24 30 1023.1 - 3.8
24/08:16pm 22.0 14.6 18.0 78 2.5 ESE 54 72 29 39 1022.9 - 3.8
24/08:00pm 23.1 17.1 18.8 77 2.7 ESE 48 57 26 31 1023.0 - 3.8
24/07:30pm 23.1 16.0 18.0 73 3.2 ESE 52 61 28 33 1022.7 - 3.8
24/07:00pm 23.1 16.8 18.0 73 3.2 ESE 48 57 26 31 1022.4 - 3.8
24/06:30pm 23.0 17.4 17.5 71 3.4 ESE 43 52 23 28 1022.4 - 3.8
24/06:00pm 22.9 17.1 17.4 71 3.4 ESE 44 61 24 33 1022.2 1021.9 3.8
24/05:30pm 22.9 16.8 17.6 72 3.3 ESE 46 59 25 32 1022.0 - 3.8
24/05:00pm 21.8 14.8 17.2 75 2.8 ESE 50 70 27 38 1021.4 - 3.8
24/04:59pm 22.4 15.7 17.1 72 3.3 ESE 48 70 26 38 1021.1 - 3.8
24/04:30pm 23.1 16.8 17.1 69 3.7 ESE 46 59 25 32 1021.1 - 3.8
24/04:00pm 23.1 16.1 17.3 70 3.6 ESE 50 57 27 31 1020.8 - 3.8
24/03:30pm 23.0 16.6 17.9 73 3.2 ESE 48 57 26 31 1020.5 - 3.8
24/03:00pm 22.6 17.9 18.6 78 2.5 SE 41 50 22 27 1020.5 1020.2 3.8
24/02:30pm 21.8 16.7 19.0 84 1.8 SE 44 59 24 32 1020.7 - 3.8
24/02:13pm 22.1 18.3 19.8 87 1.5 SE 39 46 21 25 1020.6 - 3.8
24/02:08pm 21.5 17.2 19.6 89 1.2 SE 41 50 22 27 1020.7 - 3.8
24/02:00pm 21.0 16.4 19.6 92 0.9 SSE 43 54 23 29 1020.6 - 3.8
24/01:54pm 21.0 17.4 20.2 95 0.5 SSE 39 46 21 25 1020.6 - 3.8
24/01:49pm 20.8 17.4 19.8 94 0.6 SSE 37 44 20 24 1020.7 - 3.6
24/01:30pm 21.5 17.7 20.5 94 0.6 SE 41 46 22 25 1020.7 - 3.2
24/01:19pm 21.4 17.6 20.6 95 0.5 SSE 41 46 22 25 1020.8 - 3.2
24/01:09pm 20.3 15.5 19.3 94 0.6 SSE 43 56 23 30 1021.0 - 3.2
24/01:01pm 20.7 16.2 19.9 95 0.5 SSE 43 50 23 27 1021.0 - 3.0
24/01:00pm 20.6 16.1 19.8 95 0.5 SSE 43 50 23 27 1021.0 - 3.0
24/12:30pm 20.5 15.1 19.2 92 0.8 SSE 46 56 25 30 1021.4 - 2.8
24/12:22pm 20.6 14.9 19.3 92 0.8 SSE 48 57 26 31 1021.5 - 2.8

Other Formats:

Comma delimited format used in spreadsheet applications
http://www.bom.gov.au/fwo/IDQ60801/IDQ60801.94368.axf

JavaScript Object Notation format (JSON) in row-major order
http://www.bom.gov.au/fwo/IDQ60801/IDQ60801.94368.json